Terminal Aerodrome Forecast
Issued by NWS

Home | Current Version | Previous Version | Graphics & Text | Print | Product List | Glossary On
Versions: 1 2 3 4 5 6 7 8 9 10 11 12 13
000
FTUS43 KBIS 251000 AAA
TAFDIK
TAF AMD
KDIK 251020Z 2510/2606 32006KT P6SM OVC100
      TEMPO 2510/2511 SCT015 BKN025
     FM251100 32008KT P6SM SCT015 BKN025
      TEMPO 2511/2515 BKN015 OVC025
     FM251600 34015KT P6SM -SHSN SCT008 OVC011
     FM251900 33013G18KT P6SM -SHSN OVC015
     FM260300 33008KT P6SM SCT015 SCT030=

USA.gov is the U.S. government's official web portal to all federal, state and local government web resources and services.